createdAt,value
2017-10-12T00:00:17.778Z,88
2017-10-12T00:01:20.158Z,88
2017-10-12T00:02:22.539Z,89
2017-10-12T00:03:24.920Z,89
2017-10-12T00:04:27.300Z,89
2017-10-12T00:05:30.028Z,89
2017-10-12T00:06:32.406Z,90
2017-10-12T00:07:35.122Z,90
2017-10-12T00:08:37.508Z,90
2017-10-12T00:09:39.875Z,90
2017-10-12T00:10:42.247Z,89
2017-10-12T00:11:44.631Z,89
2017-10-12T00:12:47.013Z,89
2017-10-12T00:13:49.388Z,90
2017-10-12T00:14:51.774Z,90
2017-10-12T00:15:54.165Z,90
2017-10-12T00:16:56.543Z,90
2017-10-12T00:17:58.922Z,90
2017-10-12T00:19:01.302Z,90
2017-10-12T00:20:03.670Z,90
2017-10-12T00:21:06.065Z,90
2017-10-12T00:22:08.440Z,90
2017-10-12T00:23:10.812Z,90
2017-10-12T00:24:13.197Z,90
2017-10-12T00:25:15.565Z,90
2017-10-12T00:26:18.310Z,90
2017-10-12T00:27:20.683Z,90
2017-10-12T00:28:23.068Z,90
2017-10-12T00:29:25.793Z,90
2017-10-12T00:30:28.184Z,90
2017-10-12T00:31:30.551Z,90
2017-10-12T00:32:32.939Z,91
2017-10-12T00:33:35.312Z,91
2017-10-12T00:34:37.690Z,90
2017-10-12T00:35:40.068Z,90
2017-10-12T00:36:42.441Z,90
2017-10-12T00:37:44.817Z,90
2017-10-12T00:38:47.546Z,90
2017-10-12T00:39:49.924Z,90
2017-10-12T00:40:52.309Z,90
2017-10-12T00:41:54.684Z,90
2017-10-12T00:42:57.067Z,90
2017-10-12T00:43:59.820Z,90
2017-10-12T00:45:02.193Z,89
2017-10-12T00:46:04.582Z,90
2017-10-12T00:47:06.956Z,89
2017-10-12T00:48:09.332Z,89
2017-10-12T00:49:12.063Z,89
2017-10-12T00:50:14.444Z,89
2017-10-12T00:51:16.818Z,89
2017-10-12T00:52:19.203Z,89
2017-10-12T00:53:21.925Z,89
2017-10-12T00:54:24.308Z,89
2017-10-12T00:55:26.686Z,89
2017-10-12T00:56:29.061Z,89
2017-10-12T00:57:31.444Z,89
2017-10-12T00:58:33.831Z,89
2017-10-12T00:59:36.209Z,89
2017-10-12T01:00:38.586Z,88
2017-10-12T01:01:40.964Z,88
2017-10-12T01:02:43.335Z,88
2017-10-12T01:03:45.715Z,88
2017-10-12T01:04:48.089Z,88
2017-10-12T01:05:50.805Z,88
2017-10-12T01:06:53.189Z,88
2017-10-12T01:07:55.925Z,88
2017-10-12T01:08:58.309Z,88
2017-10-12T01:10:00.691Z,87
2017-10-12T01:11:03.063Z,87
2017-10-12T01:12:05.464Z,87
2017-10-12T01:13:07.833Z,88
2017-10-12T01:14:10.206Z,87
2017-10-12T01:15:12.590Z,87
2017-10-12T01:16:14.958Z,87
2017-10-12T01:17:17.336Z,88
2017-10-12T01:18:20.079Z,87
2017-10-12T01:19:22.455Z,88
2017-10-12T01:20:24.840Z,87
2017-10-12T01:21:27.220Z,88
2017-10-12T01:22:29.587Z,88
2017-10-12T01:23:31.971Z,88
2017-10-12T01:24:34.356Z,88
2017-10-12T01:25:36.731Z,88
2017-10-12T01:26:39.119Z,88
2017-10-12T01:27:41.482Z,88
2017-10-12T01:28:43.867Z,88
2017-10-12T01:29:46.251Z,88
2017-10-12T01:30:48.625Z,88
2017-10-12T01:31:51.003Z,88
2017-10-12T01:32:53.378Z,88
2017-10-12T01:33:55.755Z,88
2017-10-12T01:34:58.143Z,87
2017-10-12T01:36:00.517Z,87
2017-10-12T01:37:02.891Z,87
2017-10-12T01:38:05.632Z,87
2017-10-12T01:39:08.009Z,88
2017-10-12T01:40:10.387Z,88
2017-10-12T01:41:12.758Z,88
2017-10-12T01:42:15.138Z,88
2017-10-12T01:43:17.509Z,88
2017-10-12T01:44:19.885Z,88
2017-10-12T01:45:22.269Z,88
2017-10-12T01:46:24.647Z,88
2017-10-12T01:47:27.026Z,88
2017-10-12T01:48:29.415Z,88
2017-10-12T01:49:31.788Z,88
2017-10-12T01:50:34.170Z,87
2017-10-12T01:51:36.897Z,88
2017-10-12T01:52:39.268Z,88
2017-10-12T01:53:41.649Z,88
2017-10-12T01:54:44.374Z,87
2017-10-12T01:55:46.748Z,87
2017-10-12T01:56:49.126Z,88
2017-10-12T01:57:51.503Z,88
2017-10-12T01:58:53.878Z,88
2017-10-12T01:59:56.257Z,88
2017-10-12T02:00:58.639Z,88
2017-10-12T02:02:01.018Z,88
2017-10-12T02:03:03.406Z,88
2017-10-12T02:04:06.132Z,88
2017-10-12T02:05:08.506Z,88
2017-10-12T02:06:10.893Z,87
2017-10-12T02:07:13.624Z,87
2017-10-12T02:08:15.998Z,87
2017-10-12T02:09:18.372Z,87
2017-10-12T02:10:21.111Z,87
2017-10-12T02:11:23.482Z,87
2017-10-12T02:12:25.855Z,87
2017-10-12T02:13:28.240Z,87
2017-10-12T02:14:30.614Z,87
2017-10-12T02:15:32.989Z,87
2017-10-12T02:16:35.375Z,87
2017-10-12T02:17:37.747Z,87
2017-10-12T02:18:40.125Z,87
2017-10-12T02:19:42.515Z,87
2017-10-12T02:20:44.883Z,87
2017-10-12T02:21:47.264Z,87
2017-10-12T02:22:49.644Z,87
2017-10-12T02:23:52.022Z,87
2017-10-12T02:24:54.763Z,87
2017-10-12T02:25:57.137Z,87
2017-10-12T02:26:59.499Z,87
2017-10-12T02:28:01.876Z,87
2017-10-12T02:29:04.254Z,87
2017-10-12T02:30:06.626Z,87
2017-10-12T02:31:09.004Z,88
2017-10-12T02:32:11.387Z,89
2017-10-12T02:33:13.765Z,89
2017-10-12T02:34:16.149Z,89
2017-10-12T02:35:18.527Z,90
2017-10-12T02:36:20.903Z,91
2017-10-12T02:37:23.269Z,91
2017-10-12T02:38:25.651Z,92
2017-10-12T02:39:28.029Z,92
2017-10-12T02:40:30.411Z,93
2017-10-12T02:41:33.524Z,93
2017-10-12T02:42:35.908Z,93
2017-10-12T02:43:38.282Z,94
2017-10-12T02:44:40.671Z,94
2017-10-12T02:45:43.039Z,94
2017-10-12T02:46:45.420Z,95
2017-10-12T02:47:48.155Z,95
2017-10-12T02:48:50.533Z,95
2017-10-12T02:49:52.905Z,95
2017-10-12T02:50:55.288Z,96
2017-10-12T02:51:57.655Z,96
2017-10-12T02:53:00.036Z,96
2017-10-12T02:54:02.770Z,97
2017-10-12T02:55:05.150Z,97
2017-10-12T02:56:07.871Z,97
2017-10-12T02:57:10.244Z,98
2017-10-12T02:58:12.608Z,98
2017-10-12T02:59:14.996Z,98
2017-10-12T03:00:17.742Z,98
2017-10-12T03:01:20.126Z,98
2017-10-12T03:02:23.263Z,99
2017-10-12T03:03:25.642Z,99
2017-10-12T03:04:28.019Z,99
2017-10-12T03:05:30.399Z,99
2017-10-12T03:06:32.777Z,99
2017-10-12T03:07:35.159Z,99
2017-10-12T03:08:37.536Z,100
2017-10-12T03:09:40.251Z,100
2017-10-12T03:10:42.626Z,100
2017-10-12T03:11:45.033Z,100
2017-10-12T03:12:47.391Z,100
2017-10-12T03:13:49.770Z,100
2017-10-12T03:14:52.493Z,100
2017-10-12T03:15:54.866Z,100
2017-10-12T03:16:57.253Z,100
2017-10-12T03:17:59.633Z,100
2017-10-12T03:19:01.997Z,100
2017-10-12T03:20:04.383Z,100
2017-10-12T03:21:06.770Z,100
2017-10-12T03:22:09.145Z,100
2017-10-12T03:23:11.522Z,100
2017-10-12T03:24:13.888Z,100
2017-10-12T03:25:16.270Z,100
2017-10-12T03:26:19.353Z,100
2017-10-12T03:27:21.730Z,100
2017-10-12T03:28:24.101Z,100
2017-10-12T03:29:26.484Z,100
2017-10-12T03:30:28.862Z,100
2017-10-12T03:31:31.251Z,100
2017-10-12T03:32:33.628Z,100
2017-10-12T03:33:35.988Z,100
2017-10-12T03:34:38.366Z,100
2017-10-12T03:35:41.124Z,100
2017-10-12T03:36:43.504Z,100
2017-10-12T03:37:45.877Z,100
2017-10-12T03:38:48.259Z,100
2017-10-12T03:39:50.635Z,100
2017-10-12T03:40:53.009Z,100
2017-10-12T03:41:55.384Z,100
2017-10-12T03:42:57.778Z,100
2017-10-12T03:44:00.492Z,100
2017-10-12T03:45:02.876Z,100
2017-10-12T03:46:05.249Z,100
2017-10-12T03:47:07.618Z,100
2017-10-12T03:48:10.358Z,100
2017-10-12T03:49:12.744Z,100
2017-10-12T03:50:15.112Z,100
2017-10-12T03:51:17.860Z,100
2017-10-12T03:52:20.230Z,100
2017-10-12T03:53:22.609Z,100
2017-10-12T03:54:24.984Z,100
2017-10-12T03:55:27.362Z,100
2017-10-12T03:56:29.737Z,100
2017-10-12T03:57:32.475Z,100
2017-10-12T03:58:35.190Z,100
2017-10-12T03:59:37.922Z,100
2017-10-12T04:00:40.659Z,100
2017-10-12T04:01:43.393Z,100
2017-10-12T04:02:45.768Z,100
2017-10-12T04:03:48.145Z,100
2017-10-12T04:04:50.512Z,100
2017-10-12T04:05:52.899Z,100
2017-10-12T04:06:55.288Z,100
2017-10-12T04:07:57.667Z,100
2017-10-12T04:09:00.032Z,100
2017-10-12T04:10:02.416Z,100
2017-10-12T04:11:04.797Z,100
2017-10-12T04:12:07.171Z,100
2017-10-12T04:13:09.546Z,100
2017-10-12T04:14:11.924Z,100
2017-10-12T04:15:14.303Z,100
2017-10-12T04:16:16.693Z,100
2017-10-12T04:17:19.070Z,100
2017-10-12T04:18:21.451Z,100
2017-10-12T04:19:23.837Z,100
2017-10-12T04:20:26.212Z,100
2017-10-12T04:21:28.596Z,100
2017-10-12T04:22:30.969Z,100
2017-10-12T04:23:33.728Z,100
2017-10-12T04:24:36.118Z,100
2017-10-12T04:25:38.493Z,100
2017-10-12T04:26:40.883Z,100
2017-10-12T04:27:43.255Z,100
2017-10-12T04:28:45.628Z,100
2017-10-12T04:29:48.003Z,100
2017-10-12T04:30:50.399Z,100
2017-10-12T04:31:52.766Z,100
2017-10-12T04:32:55.142Z,100
2017-10-12T04:33:57.874Z,100
2017-10-12T04:35:00.252Z,100
2017-10-12T04:36:02.987Z,100
2017-10-12T04:37:05.369Z,100
2017-10-12T04:38:07.736Z,100
2017-10-12T04:39:10.113Z,100
2017-10-12T04:40:12.479Z,100
2017-10-12T04:41:15.216Z,100
2017-10-12T04:42:17.596Z,100
2017-10-12T04:43:19.974Z,100
2017-10-12T04:44:22.359Z,100
2017-10-12T04:45:24.731Z,100
2017-10-12T04:46:27.112Z,100
2017-10-12T04:47:29.486Z,100
2017-10-12T04:48:31.856Z,100
2017-10-12T04:49:34.233Z,100
2017-10-12T04:50:36.611Z,100
2017-10-12T04:51:38.980Z,100
2017-10-12T04:52:41.363Z,100
2017-10-12T04:53:43.746Z,100
2017-10-12T04:54:46.474Z,100
2017-10-12T04:55:48.864Z,100
2017-10-12T04:56:51.235Z,100
2017-10-12T04:57:53.612Z,100
2017-10-12T04:58:55.993Z,100
2017-10-12T04:59:58.373Z,100
2017-10-12T05:01:01.114Z,100
2017-10-12T05:02:03.863Z,100
2017-10-12T05:03:06.237Z,100
2017-10-12T05:04:08.611Z,100
2017-10-12T05:05:11.339Z,99
2017-10-12T05:06:13.714Z,99
2017-10-12T05:07:16.458Z,99
2017-10-12T05:08:18.826Z,99
2017-10-12T05:09:21.204Z,99
2017-10-12T05:10:23.584Z,99
2017-10-12T05:11:26.007Z,99
2017-10-12T05:12:28.384Z,99
2017-10-12T05:13:31.124Z,99
2017-10-12T05:14:33.843Z,99
2017-10-12T05:15:36.230Z,99
2017-10-12T05:16:38.609Z,99
2017-10-12T05:17:40.980Z,100
2017-10-12T05:18:43.354Z,100
2017-10-12T05:19:46.085Z,100
2017-10-12T05:20:48.467Z,99
2017-10-12T05:21:50.846Z,99
2017-10-12T05:22:53.225Z,99
2017-10-12T05:23:55.954Z,99
2017-10-12T05:24:58.332Z,99
2017-10-12T05:26:00.715Z,99
2017-10-12T05:27:03.100Z,99
2017-10-12T05:28:05.470Z,99
2017-10-12T05:29:08.189Z,99
2017-10-12T05:30:10.919Z,99
2017-10-12T05:31:13.297Z,99
2017-10-12T05:32:16.384Z,99
2017-10-12T05:33:19.107Z,99
2017-10-12T05:34:21.490Z,99
2017-10-12T05:35:23.857Z,99
2017-10-12T05:36:26.240Z,99
2017-10-12T05:37:28.616Z,99
2017-10-12T05:38:31.002Z,99
2017-10-12T05:39:33.372Z,99
2017-10-12T05:40:35.747Z,99
2017-10-12T05:41:38.124Z,98
2017-10-12T05:42:40.497Z,98
2017-10-12T05:43:42.882Z,98
2017-10-12T05:44:45.264Z,98
2017-10-12T05:45:47.641Z,98
2017-10-12T05:46:50.034Z,98
2017-10-12T05:47:52.408Z,98
2017-10-12T05:48:55.136Z,98
2017-10-12T05:49:57.872Z,98
2017-10-12T05:51:00.250Z,98
2017-10-12T05:52:02.627Z,98
2017-10-12T05:53:05.011Z,98
2017-10-12T05:54:07.372Z,98
2017-10-12T05:55:09.757Z,98
2017-10-12T05:56:12.138Z,98
2017-10-12T05:57:15.213Z,98
2017-10-12T05:58:17.597Z,98
2017-10-12T05:59:19.968Z,98
2017-10-12T06:00:22.339Z,98
2017-10-12T06:01:24.728Z,98
2017-10-12T06:02:27.099Z,98
2017-10-12T06:03:29.820Z,98
2017-10-12T06:04:32.203Z,98
2017-10-12T06:05:34.593Z,97
2017-10-12T06:06:36.965Z,97
2017-10-12T06:07:39.340Z,97
2017-10-12T06:08:41.721Z,97
2017-10-12T06:09:44.092Z,97
2017-10-12T06:10:46.474Z,97
2017-10-12T06:11:48.858Z,97
2017-10-12T06:12:51.219Z,97
2017-10-12T06:13:53.601Z,97
2017-10-12T06:14:55.990Z,97
2017-10-12T06:15:58.369Z,97
2017-10-12T06:17:00.750Z,97
2017-10-12T06:18:03.475Z,97
2017-10-12T06:19:05.844Z,97
2017-10-12T06:20:08.591Z,96
2017-10-12T06:21:10.969Z,96
2017-10-12T06:22:13.344Z,96
2017-10-12T06:23:15.720Z,96
2017-10-12T06:24:18.098Z,95
2017-10-12T06:25:20.476Z,95
2017-10-12T06:26:22.862Z,95
2017-10-12T06:27:25.232Z,95
2017-10-12T06:28:27.600Z,95
2017-10-12T06:29:29.988Z,95
2017-10-12T06:30:32.367Z,95
2017-10-12T06:31:34.748Z,95
2017-10-12T06:32:37.121Z,95
2017-10-12T06:33:39.508Z,95
2017-10-12T06:34:41.882Z,95
2017-10-12T06:35:44.261Z,94
2017-10-12T06:36:46.640Z,94
2017-10-12T06:37:49.012Z,94
2017-10-12T06:38:51.377Z,94
2017-10-12T06:39:53.757Z,94
2017-10-12T06:40:56.134Z,94
2017-10-12T06:41:58.510Z,94
2017-10-12T06:43:00.900Z,94
2017-10-12T06:44:03.622Z,93
2017-10-12T06:45:06.359Z,93
2017-10-12T06:46:08.756Z,93
2017-10-12T06:47:11.122Z,93
2017-10-12T06:48:13.500Z,93
2017-10-12T06:49:15.879Z,92
2017-10-12T06:50:18.256Z,92
2017-10-12T06:51:20.642Z,92
2017-10-12T06:52:23.019Z,92
2017-10-12T06:53:25.381Z,92
2017-10-12T06:54:27.760Z,92
2017-10-12T06:55:30.140Z,92
2017-10-12T06:56:32.510Z,91
2017-10-12T06:57:34.889Z,90
2017-10-12T06:58:37.266Z,90
2017-10-12T06:59:39.641Z,89
2017-10-12T07:00:42.030Z,89
2017-10-12T07:01:44.409Z,89
2017-10-12T07:02:46.789Z,89
2017-10-12T07:03:49.167Z,88
2017-10-12T07:04:51.533Z,88
2017-10-12T07:05:54.262Z,88
2017-10-12T07:06:56.637Z,88
2017-10-12T07:07:59.021Z,89
2017-10-12T07:09:01.401Z,89
2017-10-12T07:10:03.792Z,88
2017-10-12T07:11:06.156Z,88
2017-10-12T07:12:08.546Z,88
2017-10-12T07:13:10.918Z,87
2017-10-12T07:14:13.295Z,87
2017-10-12T07:15:15.675Z,87
2017-10-12T07:16:18.049Z,87
2017-10-12T07:17:20.430Z,87
2017-10-12T07:18:22.813Z,87
2017-10-12T07:19:25.182Z,87
2017-10-12T07:20:27.561Z,88
2017-10-12T07:21:30.312Z,87
2017-10-12T07:22:32.685Z,87
2017-10-12T07:23:35.411Z,87
2017-10-12T07:24:37.798Z,87
2017-10-12T07:25:40.167Z,86
2017-10-12T07:26:43.266Z,86
2017-10-12T07:27:45.991Z,86
2017-10-12T07:28:48.368Z,85
2017-10-12T07:29:50.751Z,86
2017-10-12T07:30:53.128Z,85
2017-10-12T07:31:55.504Z,85
2017-10-12T07:32:57.886Z,84
2017-10-12T07:34:00.623Z,84
2017-10-12T07:35:03.014Z,83
2017-10-12T07:36:05.388Z,83
2017-10-12T07:37:07.773Z,82
2017-10-12T07:38:10.163Z,81
2017-10-12T07:39:12.543Z,81
2017-10-12T07:40:14.921Z,81
2017-10-12T07:41:17.297Z,81
2017-10-12T07:42:19.672Z,81
2017-10-12T07:43:22.054Z,81
2017-10-12T07:44:24.429Z,81
2017-10-12T07:45:26.801Z,80
2017-10-12T07:46:29.184Z,81
2017-10-12T07:47:31.574Z,80
2017-10-12T07:48:33.955Z,80
2017-10-12T07:49:36.335Z,79
2017-10-12T07:50:38.702Z,80
2017-10-12T07:51:41.078Z,78
2017-10-12T07:52:43.472Z,78
2017-10-12T07:53:45.856Z,78
2017-10-12T07:54:48.234Z,78
2017-10-12T07:55:50.624Z,79
2017-10-12T07:56:53.007Z,79
2017-10-12T07:57:55.399Z,80
2017-10-12T07:58:57.781Z,79
2017-10-12T08:00:00.147Z,80
2017-10-12T08:01:02.533Z,80
2017-10-12T08:02:05.272Z,80
2017-10-12T08:03:07.659Z,79
2017-10-12T08:04:10.038Z,80
2017-10-12T08:05:12.757Z,79
2017-10-12T08:06:15.145Z,79
2017-10-12T08:07:17.869Z,79
2017-10-12T08:08:20.257Z,79
2017-10-12T08:09:23.006Z,79
2017-10-12T08:10:25.382Z,79
2017-10-12T08:11:27.762Z,79
2017-10-12T08:12:30.507Z,78
2017-10-12T08:13:32.881Z,79
2017-10-12T08:14:35.267Z,79
2017-10-12T08:15:37.998Z,79
2017-10-12T08:16:40.385Z,79
2017-10-12T08:17:42.773Z,79
2017-10-12T08:18:45.501Z,79
2017-10-12T08:19:47.885Z,78
2017-10-12T08:20:50.264Z,78
2017-10-12T08:21:52.647Z,77
2017-10-12T08:22:55.027Z,78
2017-10-12T08:23:57.403Z,78
2017-10-12T08:24:59.785Z,78
2017-10-12T08:26:02.169Z,78
2017-10-12T08:27:04.551Z,78
2017-10-12T08:28:06.931Z,78
2017-10-12T08:29:09.309Z,78
2017-10-12T08:30:11.693Z,78
2017-10-12T08:31:14.078Z,78
2017-10-12T08:32:16.461Z,78
2017-10-12T08:33:19.201Z,78
2017-10-12T08:34:21.583Z,79
2017-10-12T08:35:23.953Z,78
2017-10-12T08:36:26.339Z,79
2017-10-12T08:37:28.722Z,80
2017-10-12T08:38:31.101Z,79
2017-10-12T08:39:33.485Z,80
2017-10-12T08:40:35.866Z,79
2017-10-12T08:41:38.251Z,78
2017-10-12T08:42:40.637Z,78
2017-10-12T08:43:43.017Z,79
2017-10-12T08:44:45.397Z,79
2017-10-12T08:45:47.781Z,79
2017-10-12T08:46:50.160Z,78
2017-10-12T08:47:52.553Z,78
2017-10-12T08:48:54.931Z,78
2017-10-12T08:49:57.304Z,77
2017-10-12T08:50:59.695Z,76
2017-10-12T08:52:02.069Z,75
2017-10-12T08:53:04.454Z,74
2017-10-12T08:54:07.200Z,74
2017-10-12T08:55:09.575Z,74
2017-10-12T08:56:12.320Z,73
2017-10-12T08:57:15.068Z,72
2017-10-12T08:58:17.440Z,73
2017-10-12T08:59:19.823Z,72
2017-10-12T09:00:22.205Z,71
2017-10-12T09:01:24.586Z,72
2017-10-12T09:02:26.976Z,72
2017-10-12T09:03:29.355Z,71
2017-10-12T09:04:31.750Z,71
2017-10-12T09:05:34.131Z,71
2017-10-12T09:06:36.497Z,70
2017-10-12T09:07:38.880Z,70
2017-10-12T09:08:41.264Z,70
2017-10-12T09:09:43.640Z,70
2017-10-12T09:10:46.024Z,69
2017-10-12T09:11:48.404Z,70
2017-10-12T09:12:50.790Z,70
2017-10-12T09:13:53.528Z,69
2017-10-12T09:14:55.910Z,70
2017-10-12T09:15:58.291Z,69
2017-10-12T09:17:00.679Z,69
2017-10-12T09:18:03.057Z,69
2017-10-12T09:19:05.784Z,69
2017-10-12T09:20:08.177Z,68
2017-10-12T09:21:10.555Z,69
2017-10-12T09:22:12.947Z,70
2017-10-12T09:23:15.327Z,68
2017-10-12T09:24:18.049Z,67
2017-10-12T09:25:20.444Z,67
2017-10-12T09:26:22.827Z,68
2017-10-12T09:27:25.204Z,69
2017-10-12T09:28:27.583Z,67
2017-10-12T09:29:29.981Z,66
2017-10-12T09:30:32.347Z,67
2017-10-12T09:31:35.087Z,67
2017-10-12T09:32:37.834Z,65
2017-10-12T09:33:40.216Z,65
2017-10-12T09:34:42.601Z,65
2017-10-12T09:35:44.981Z,66
2017-10-12T09:36:47.365Z,65
2017-10-12T09:37:49.742Z,66
2017-10-12T09:38:52.130Z,65
2017-10-12T09:39:54.516Z,65
2017-10-12T09:40:56.904Z,64
2017-10-12T09:41:59.294Z,65
2017-10-12T09:43:01.680Z,65
2017-10-12T09:44:04.065Z,65
2017-10-12T09:45:06.451Z,66
2017-10-12T09:46:08.837Z,67
2017-10-12T09:47:11.219Z,67
2017-10-12T09:48:13.599Z,68
2017-10-12T09:49:15.971Z,68
2017-10-12T09:50:18.712Z,69
2017-10-12T09:51:21.094Z,68
2017-10-12T09:52:23.473Z,68
2017-10-12T09:53:26.202Z,69
2017-10-12T09:54:28.591Z,70
2017-10-12T09:55:30.976Z,69
2017-10-12T09:56:33.372Z,68
2017-10-12T09:57:35.751Z,68
2017-10-12T09:58:38.133Z,68
2017-10-12T09:59:40.507Z,69
2017-10-12T10:00:42.898Z,69
2017-10-12T10:01:45.280Z,69
2017-10-12T10:02:47.670Z,69
2017-10-12T10:03:50.059Z,69
2017-10-12T10:04:52.441Z,69
2017-10-12T10:05:55.166Z,68
2017-10-12T10:06:57.551Z,68
2017-10-12T10:07:59.932Z,68
2017-10-12T10:09:02.319Z,69
2017-10-12T10:10:04.707Z,66
2017-10-12T10:11:07.429Z,65
2017-10-12T10:12:09.805Z,66
2017-10-12T10:13:12.192Z,64
2017-10-12T10:14:14.571Z,65
2017-10-12T10:15:16.947Z,65
2017-10-12T10:16:19.338Z,65
2017-10-12T10:17:21.717Z,65
2017-10-12T10:18:24.453Z,65
2017-10-12T10:19:26.834Z,66
2017-10-12T10:20:29.214Z,68
2017-10-12T10:21:31.599Z,67
2017-10-12T10:22:33.994Z,67
2017-10-12T10:23:36.369Z,65
2017-10-12T10:24:38.759Z,65
2017-10-12T10:25:41.138Z,64
2017-10-12T10:26:43.530Z,66
2017-10-12T10:27:45.909Z,65
2017-10-12T10:28:48.299Z,65
2017-10-12T10:29:50.664Z,66
2017-10-12T10:30:53.052Z,65
2017-10-12T10:31:55.436Z,66
2017-10-12T10:32:58.183Z,65
2017-10-12T10:34:00.567Z,63
2017-10-12T10:35:03.323Z,64
2017-10-12T10:36:05.707Z,65
2017-10-12T10:37:08.076Z,65
2017-10-12T10:38:10.467Z,65
2017-10-12T10:39:12.852Z,62
2017-10-12T10:40:15.593Z,62
2017-10-12T10:41:17.983Z,64
2017-10-12T10:42:20.359Z,63
2017-10-12T10:43:23.082Z,63
2017-10-12T10:44:25.478Z,63
2017-10-12T10:45:28.207Z,63
2017-10-12T10:46:30.585Z,63
2017-10-12T10:47:32.972Z,62
2017-10-12T10:48:35.341Z,61
2017-10-12T10:49:37.729Z,63
2017-10-12T10:50:40.119Z,62
2017-10-12T10:51:42.503Z,63
2017-10-12T10:52:44.890Z,64
2017-10-12T10:53:47.270Z,63
2017-10-12T10:54:49.655Z,64
2017-10-12T10:55:52.054Z,66
2017-10-12T10:56:54.433Z,64
2017-10-12T10:57:56.805Z,65
2017-10-12T10:58:59.542Z,66
2017-10-12T11:00:01.923Z,65
2017-10-12T11:01:04.327Z,65
2017-10-12T11:02:07.422Z,66
2017-10-12T11:03:09.800Z,66
2017-10-12T11:04:12.193Z,67
2017-10-12T11:05:14.576Z,66
2017-10-12T11:06:17.307Z,66
2017-10-12T11:07:19.703Z,66
2017-10-12T11:08:22.066Z,68
2017-10-12T11:09:24.445Z,67
2017-10-12T11:10:26.841Z,68
2017-10-12T11:11:29.212Z,67
2017-10-12T11:12:31.596Z,67
2017-10-12T11:13:33.976Z,67
2017-10-12T11:14:36.718Z,66
2017-10-12T11:15:39.098Z,67
2017-10-12T11:16:41.479Z,66
2017-10-12T11:17:43.868Z,67
2017-10-12T11:18:46.249Z,66
2017-10-12T11:19:48.638Z,67
2017-10-12T11:20:51.022Z,67
2017-10-12T11:21:53.391Z,67
2017-10-12T11:22:55.777Z,68
2017-10-12T11:23:58.151Z,69
2017-10-12T11:25:00.536Z,67
2017-10-12T11:26:02.917Z,68
2017-10-12T11:27:05.300Z,67
2017-10-12T11:28:07.677Z,67
2017-10-12T11:29:10.067Z,67
2017-10-12T11:30:12.444Z,68
2017-10-12T11:31:14.821Z,70
2017-10-12T11:32:17.205Z,70
2017-10-12T11:33:19.592Z,71
2017-10-12T11:34:21.969Z,74
2017-10-12T11:35:24.358Z,75
2017-10-12T11:36:26.732Z,77
2017-10-12T11:37:29.472Z,79
2017-10-12T11:38:31.853Z,82
2017-10-12T11:39:34.232Z,84
2017-10-12T11:40:36.613Z,86
2017-10-12T11:41:39.338Z,86
2017-10-12T11:42:41.711Z,86
2017-10-12T11:43:44.085Z,87
2017-10-12T11:44:46.476Z,87
2017-10-12T11:45:48.837Z,87
2017-10-12T11:46:51.225Z,86
2017-10-12T11:47:53.619Z,87
2017-10-12T11:48:55.994Z,84
2017-10-12T11:49:58.374Z,84
2017-10-12T11:51:01.099Z,84
2017-10-12T11:52:03.478Z,85
2017-10-12T11:53:05.869Z,86
2017-10-12T11:54:08.244Z,83
2017-10-12T11:55:10.617Z,84
2017-10-12T11:56:13.002Z,85
2017-10-12T11:57:15.389Z,83
2017-10-12T11:58:17.773Z,85
2017-10-12T11:59:20.161Z,86
2017-10-12T12:00:22.541Z,86
2017-10-12T12:01:24.931Z,84
2017-10-12T12:02:27.303Z,83
2017-10-12T12:03:29.684Z,85
2017-10-12T12:04:32.069Z,86
2017-10-12T12:05:34.445Z,85
2017-10-12T12:06:36.818Z,83
2017-10-12T12:07:39.202Z,83
2017-10-12T12:08:41.577Z,84
2017-10-12T12:09:43.973Z,86
2017-10-12T12:10:46.702Z,87
2017-10-12T12:11:49.078Z,85
2017-10-12T12:12:51.457Z,85
2017-10-12T12:13:53.837Z,85
2017-10-12T12:14:56.219Z,87
2017-10-12T12:15:58.604Z,86
2017-10-12T12:17:00.977Z,86
2017-10-12T12:18:03.350Z,85
2017-10-12T12:19:05.747Z,86
2017-10-12T12:20:08.122Z,86
2017-10-12T12:21:10.494Z,85
2017-10-12T12:22:13.225Z,85
2017-10-12T12:23:15.952Z,85
2017-10-12T12:24:18.337Z,85
2017-10-12T12:25:20.730Z,85
2017-10-12T12:26:23.097Z,85
2017-10-12T12:27:25.483Z,85
2017-10-12T12:28:27.872Z,84
2017-10-12T12:29:30.255Z,85
2017-10-12T12:30:32.640Z,85
2017-10-12T12:31:35.018Z,85
2017-10-12T12:32:37.747Z,85
2017-10-12T12:33:40.116Z,84
2017-10-12T12:34:42.490Z,85
2017-10-12T12:35:44.882Z,82
2017-10-12T12:36:47.259Z,81
2017-10-12T12:37:49.635Z,82
2017-10-12T12:38:52.023Z,81
2017-10-12T12:39:54.405Z,83
2017-10-12T12:40:57.569Z,79
2017-10-12T12:41:59.946Z,76
2017-10-12T12:43:02.314Z,75
2017-10-12T12:44:04.709Z,76
2017-10-12T12:45:07.077Z,77
2017-10-12T12:46:09.465Z,79
2017-10-12T12:47:11.847Z,77
2017-10-12T12:48:14.592Z,73
2017-10-12T12:49:17.317Z,73
2017-10-12T12:50:19.705Z,73
2017-10-12T12:51:22.427Z,69
2017-10-12T12:52:24.817Z,69
2017-10-12T12:53:27.203Z,70
2017-10-12T12:54:29.582Z,71
2017-10-12T12:55:31.962Z,73
2017-10-12T12:56:34.347Z,70
2017-10-12T12:57:36.725Z,70
2017-10-12T12:58:39.109Z,67
2017-10-12T12:59:41.482Z,68
2017-10-12T13:00:43.862Z,67
2017-10-12T13:01:46.269Z,67
2017-10-12T13:02:48.635Z,69
2017-10-12T13:03:51.378Z,68
2017-10-12T13:04:53.754Z,67
2017-10-12T13:05:56.143Z,70
2017-10-12T13:06:58.526Z,69
2017-10-12T13:08:00.909Z,72
2017-10-12T13:09:03.280Z,68
2017-10-12T13:10:05.664Z,68
2017-10-12T13:11:08.407Z,68
2017-10-12T13:12:10.790Z,67
2017-10-12T13:13:13.536Z,69
2017-10-12T13:14:15.909Z,68
2017-10-12T13:15:18.645Z,71
2017-10-12T13:16:21.033Z,67
2017-10-12T13:17:23.403Z,69
2017-10-12T13:18:25.790Z,72
2017-10-12T13:19:28.164Z,69
2017-10-12T13:20:30.556Z,67
2017-10-12T13:21:32.945Z,70
2017-10-12T13:22:35.331Z,70
2017-10-12T13:23:37.696Z,69
2017-10-12T13:24:40.096Z,67
2017-10-12T13:25:42.475Z,67
2017-10-12T13:26:45.214Z,68
2017-10-12T13:28:06.837Z,70
2017-10-12T13:29:09.273Z,68
2017-10-12T13:30:11.709Z,65
2017-10-12T13:31:14.510Z,63
2017-10-12T13:32:16.934Z,62
2017-10-12T13:33:19.373Z,63
2017-10-12T13:34:21.807Z,65
2017-10-12T13:35:24.251Z,64
2017-10-12T13:36:26.690Z,64
2017-10-12T13:37:29.126Z,66
2017-10-12T13:38:31.569Z,65
2017-10-12T13:39:34.375Z,66
2017-10-12T13:40:37.190Z,66
2017-10-12T13:41:39.629Z,67
2017-10-12T13:42:42.058Z,69
2017-10-12T13:43:44.499Z,67
2017-10-12T13:44:46.928Z,69
2017-10-12T13:45:49.371Z,70
2017-10-12T13:46:51.811Z,71
2017-10-12T13:47:54.964Z,71
2017-10-12T13:48:57.402Z,72
2017-10-12T13:49:59.842Z,72
2017-10-12T13:51:02.266Z,72
2017-10-12T13:52:04.715Z,71
2017-10-12T13:53:07.145Z,72
2017-10-12T13:54:09.572Z,72
2017-10-12T13:55:12.004Z,72
2017-10-12T13:56:14.796Z,72
2017-10-12T13:57:17.233Z,70
2017-10-12T13:58:19.677Z,71
2017-10-12T13:59:22.123Z,68
2017-10-12T14:00:24.923Z,65
2017-10-12T14:01:27.356Z,64
2017-10-12T14:02:30.158Z,63
2017-10-12T14:03:32.607Z,62
2017-10-12T14:04:35.031Z,62
2017-10-12T14:05:37.479Z,63
2017-10-12T14:06:39.902Z,62
2017-10-12T14:07:42.336Z,60
2017-10-12T14:08:44.777Z,59
2017-10-12T14:09:47.213Z,59
2017-10-12T14:10:49.655Z,59
2017-10-12T14:11:52.802Z,60
2017-10-12T14:12:55.234Z,60
2017-10-12T14:13:57.681Z,60
2017-10-12T14:15:00.116Z,59
2017-10-12T14:16:02.576Z,62
2017-10-12T14:17:05.012Z,60
2017-10-12T14:18:07.463Z,60
2017-10-12T14:19:09.899Z,60
2017-10-12T14:20:12.696Z,60
2017-10-12T14:21:15.118Z,62
2017-10-12T14:22:17.551Z,61
2017-10-12T14:23:19.983Z,60
2017-10-12T14:24:22.420Z,61
2017-10-12T14:25:24.849Z,60
2017-10-12T14:26:27.299Z,61
2017-10-12T14:27:29.745Z,59
2017-10-12T14:28:32.540Z,61
2017-10-12T14:29:34.976Z,61
2017-10-12T14:30:37.429Z,61
2017-10-12T14:31:40.228Z,62
2017-10-12T14:32:42.655Z,59
2017-10-12T14:33:45.087Z,60
2017-10-12T14:34:47.532Z,61
2017-10-12T14:35:49.966Z,59
2017-10-12T14:36:52.402Z,60
2017-10-12T14:37:54.825Z,61
2017-10-12T14:38:57.263Z,62
2017-10-12T14:39:59.719Z,61
2017-10-12T14:41:02.153Z,61
2017-10-12T14:42:04.590Z,60
2017-10-12T14:43:07.386Z,61
2017-10-12T14:44:10.186Z,61
2017-10-12T14:45:12.615Z,61
2017-10-12T14:46:15.051Z,60